createdAt,value
2022-11-27T00:01:46.881Z,142.13
2022-11-27T00:07:38.735Z,112.22
2022-11-27T00:13:31.013Z,105.47
2022-11-27T00:19:23.931Z,106.27
2022-11-27T00:25:15.957Z,117.40
2022-11-27T00:31:19.217Z,112.35
2022-11-27T00:37:12.481Z,104.30
2022-11-27T00:43:05.283Z,115.50
2022-11-27T00:48:59.480Z,107.27
2022-11-27T00:54:51.761Z,111.07
2022-11-27T01:00:44.213Z,110.72
2022-11-27T01:06:37.441Z,138.82
2022-11-27T01:12:29.882Z,112.65
2022-11-27T01:18:22.150Z,95.07
2022-11-27T01:24:16.692Z,131.27
2022-11-27T01:30:09.822Z,153.50
2022-11-27T01:36:05.161Z,167.27
2022-11-27T01:41:57.341Z,140.50
2022-11-27T01:48:01.841Z,139.20
2022-11-27T01:53:55.114Z,136.00
2022-11-27T01:59:49.821Z,316.25
2022-11-27T02:05:41.928Z,177.15
2022-11-27T02:11:39.178Z,277.30
2022-11-27T02:17:42.421Z,176.73
2022-11-27T02:23:43.965Z,251.57
2022-11-27T02:29:37.007Z,314.75
2022-11-27T02:35:37.742Z,157.18
2022-11-27T02:41:39.662Z,133.80
2022-11-27T02:47:32.822Z,282.13
2022-11-27T02:53:38.053Z,390.85
2022-11-27T02:59:33.733Z,466.75
2022-11-27T03:05:33.012Z,402.80
2022-11-27T03:11:26.872Z,439.92
2022-11-27T03:18:05.302Z,489.60
2022-11-27T03:23:58.723Z,466.38
2022-11-27T03:30:05.212Z,366.55
2022-11-27T03:35:58.462Z,339.60
2022-11-27T03:42:15.933Z,228.03
2022-11-27T03:48:14.252Z,251.60
2022-11-27T03:54:15.213Z,395.05
2022-11-27T04:00:09.642Z,536.63
2022-11-27T04:06:02.165Z,415.95
2022-11-27T04:11:54.584Z,501.92
2022-11-27T04:17:47.624Z,460.13
2022-11-27T04:23:41.082Z,306.45
2022-11-27T04:29:33.723Z,218.65
2022-11-27T04:35:27.737Z,405.40
2022-11-27T04:41:20.721Z,414.27
2022-11-27T04:47:13.712Z,409.67
2022-11-27T04:53:06.760Z,452.13
2022-11-27T04:58:59.649Z,392.23
2022-11-27T05:04:51.867Z,410.35
2022-11-27T05:10:44.797Z,400.58
2022-11-27T05:22:30.818Z,207.23
2022-11-27T05:28:26.878Z,325.87
2022-11-27T05:34:19.852Z,173.98
2022-11-27T05:40:13.126Z,130.50
2022-11-27T05:46:10.845Z,157.17
2022-11-27T05:52:03.892Z,315.27
2022-11-27T05:57:56.846Z,264.30
2022-11-27T06:03:49.004Z,296.83
2022-11-27T06:09:42.040Z,196.40
2022-11-27T06:15:37.548Z,155.88
2022-11-27T06:21:30.166Z,209.90
2022-11-27T06:27:23.884Z,161.30
2022-11-27T06:33:16.977Z,140.50
2022-11-27T06:39:12.286Z,169.93
2022-11-27T06:45:05.452Z,112.93
2022-11-27T06:51:05.606Z,103.07
2022-11-27T06:56:58.627Z,271.83
2022-11-27T07:08:46.368Z,234.90
2022-11-27T07:14:39.008Z,94.43
2022-11-27T07:26:27.856Z,81.53
2022-11-27T07:32:20.387Z,103.97
2022-11-27T07:38:12.777Z,105.07
2022-11-27T07:44:05.216Z,62.30
2022-11-27T07:50:00.547Z,68.60
2022-11-27T07:55:53.961Z,48.88
2022-11-27T08:01:45.637Z,55.83
2022-11-27T08:07:38.220Z,63.53
2022-11-27T08:13:31.532Z,64.22
2022-11-27T08:19:24.657Z,85.47
2022-11-27T08:25:17.347Z,84.43
2022-11-27T08:31:13.541Z,50.45
2022-11-27T08:37:07.429Z,69.10
2022-11-27T08:43:00.961Z,61.10
2022-11-27T08:48:53.211Z,81.87
2022-11-27T08:54:45.737Z,71.90
2022-11-27T09:00:39.653Z,63.40
2022-11-27T09:06:35.097Z,49.55
2022-11-27T09:12:29.049Z,50.67
2022-11-27T09:18:20.890Z,46.03
2022-11-27T09:24:13.448Z,42.55
2022-11-27T09:30:08.163Z,36.07
2022-11-27T09:41:59.904Z,44.55
2022-11-27T09:48:06.119Z,42.50
2022-11-27T09:54:03.001Z,57.72
2022-11-27T10:00:01.707Z,36.58
2022-11-27T10:05:57.147Z,31.90
2022-11-27T10:12:10.786Z,44.58
2022-11-27T10:18:06.654Z,41.20
2022-11-27T10:24:24.689Z,40.88
2022-11-27T10:30:20.957Z,41.00
2022-11-27T10:36:24.526Z,39.80
2022-11-27T10:42:49.200Z,37.60
2022-11-27T10:48:41.941Z,36.25
2022-11-27T10:54:37.842Z,34.47
2022-11-27T11:00:30.847Z,39.70
2022-11-27T11:06:27.212Z,33.33
2022-11-27T11:12:23.590Z,39.33
2022-11-27T11:18:20.959Z,29.48
2022-11-27T11:24:21.777Z,27.48
2022-11-27T11:30:28.847Z,26.23
2022-11-27T11:36:23.064Z,28.45
2022-11-27T11:42:30.196Z,26.95
2022-11-27T11:48:25.417Z,29.88
2022-11-27T11:54:28.296Z,29.73
2022-11-27T12:00:30.173Z,28.60
2022-11-27T12:06:45.820Z,25.63
2022-11-27T12:13:04.832Z,30.38
2022-11-27T12:19:16.205Z,27.83
2022-11-27T12:25:26.879Z,34.03
2022-11-27T12:31:41.182Z,33.50
2022-11-27T12:37:51.189Z,31.95
2022-11-27T12:43:56.143Z,32.25
2022-11-27T12:49:56.401Z,33.65
2022-11-27T12:56:08.486Z,42.53
2022-11-27T13:02:11.346Z,35.72
2022-11-27T13:14:20.039Z,32.60
2022-11-27T13:20:20.715Z,33.97
2022-11-27T13:26:26.536Z,39.38
2022-11-27T13:32:25.820Z,41.55
2022-11-27T13:38:25.180Z,41.47
2022-11-27T13:44:26.931Z,51.00
2022-11-27T13:50:28.205Z,52.22
2022-11-27T13:56:31.591Z,55.40
2022-11-27T14:02:25.510Z,47.85
2022-11-27T14:08:51.799Z,58.60
2022-11-27T14:14:45.739Z,49.08
2022-11-27T14:21:22.139Z,52.50
2022-11-27T14:27:23.748Z,55.63
2022-11-27T14:33:23.331Z,61.47
2022-11-27T14:39:30.300Z,61.00
2022-11-27T14:45:24.161Z,64.55
2022-11-27T14:51:20.069Z,65.60
2022-11-27T14:57:19.867Z,62.35
2022-11-27T15:03:18.202Z,65.82
2022-11-27T15:09:33.575Z,72.53
2022-11-27T15:15:29.234Z,70.32
2022-11-27T15:21:25.924Z,66.90
2022-11-27T15:27:21.199Z,62.70
2022-11-27T15:33:29.819Z,68.45
2022-11-27T15:39:38.500Z,66.35
2022-11-27T15:45:33.383Z,71.88
2022-11-27T15:51:26.365Z,70.95
2022-11-27T15:57:19.092Z,75.45
2022-11-27T16:03:11.612Z,77.57
2022-11-27T16:09:05.360Z,73.40
2022-11-27T16:14:57.389Z,67.93
2022-11-27T16:20:49.549Z,70.97
2022-11-27T16:26:42.471Z,75.87
2022-11-27T16:32:41.358Z,80.70
2022-11-27T16:38:34.448Z,83.55
2022-11-27T16:44:27.039Z,87.80
2022-11-27T16:50:19.369Z,92.07
2022-11-27T16:56:13.501Z,89.60
2022-11-27T17:02:06.524Z,93.00
2022-11-27T17:07:59.651Z,118.72
2022-11-27T17:13:56.397Z,102.53
2022-11-27T17:19:49.746Z,91.32
2022-11-27T17:25:43.750Z,89.25
2022-11-27T17:31:37.342Z,81.63
2022-11-27T17:37:30.559Z,91.13
2022-11-27T17:43:22.799Z,101.35
2022-11-27T17:49:16.489Z,95.90
2022-11-27T17:55:19.640Z,88.88
2022-11-27T18:01:18.092Z,87.00
2022-11-27T18:07:10.653Z,91.72
2022-11-27T18:13:03.822Z,95.45
2022-11-27T18:18:57.148Z,84.13
2022-11-27T18:30:41.609Z,89.97
2022-11-27T18:36:34.809Z,100.68
2022-11-27T18:42:27.573Z,96.68
2022-11-27T18:48:21.855Z,96.38
2022-11-27T18:54:14.889Z,97.28
2022-11-27T19:00:08.969Z,101.83
2022-11-27T19:06:02.873Z,95.65
2022-11-27T19:11:56.023Z,104.13
2022-11-27T19:17:48.559Z,108.27
2022-11-27T19:29:35.038Z,101.25
2022-11-27T19:35:27.549Z,110.13
2022-11-27T19:41:20.094Z,104.63
2022-11-27T19:47:12.559Z,101.20
2022-11-27T19:53:07.241Z,117.67
2022-11-27T19:59:02.128Z,123.65
2022-11-27T20:10:50.614Z,136.57
2022-11-27T20:16:42.884Z,132.10
2022-11-27T20:22:36.780Z,154.18
2022-11-27T20:28:29.313Z,134.23
2022-11-27T20:34:22.701Z,150.18
2022-11-27T20:40:15.149Z,130.32
2022-11-27T20:46:08.107Z,158.38
2022-11-27T20:52:03.721Z,153.77
2022-11-27T20:57:56.180Z,154.98
2022-11-27T21:03:51.541Z,162.18
2022-11-27T21:09:44.385Z,161.18
2022-11-27T21:15:37.818Z,147.10
2022-11-27T21:21:30.718Z,152.90
2022-11-27T21:27:24.220Z,139.95
2022-11-27T21:33:17.344Z,153.32
2022-11-27T21:39:13.215Z,158.53
2022-11-27T21:45:06.299Z,150.20
2022-11-27T21:50:44.779Z,162.00
2022-11-27T21:56:40.438Z,146.53
2022-11-27T22:02:33.379Z,140.38
2022-11-27T22:08:38.526Z,154.02
2022-11-27T22:14:31.299Z,144.38
2022-11-27T22:20:24.039Z,142.38
2022-11-27T22:26:18.739Z,143.35
2022-11-27T22:32:12.308Z,156.90
2022-11-27T22:38:04.441Z,136.20
2022-11-27T22:43:59.058Z,145.98
2022-11-27T22:49:52.358Z,134.60
2022-11-27T22:55:44.089Z,136.15
2022-11-27T23:01:37.519Z,128.27
2022-11-27T23:07:30.414Z,144.32
2022-11-27T23:13:22.442Z,132.68
2022-11-27T23:19:14.413Z,111.50
2022-11-27T23:25:06.948Z,114.78
2022-11-27T23:31:28.085Z,110.22
2022-11-27T23:37:17.479Z,112.60
2022-11-27T23:43:09.587Z,111.78
2022-11-27T23:49:01.472Z,104.97
2022-11-27T23:54:53.490Z,117.13
